createdAt,value
2022-08-19T00:02:18.087Z,6.03
2022-08-19T00:05:21.328Z,6.20
2022-08-19T00:08:23.373Z,6.75
2022-08-19T00:11:26.446Z,6.18
2022-08-19T00:14:32.783Z,6.60
2022-08-19T00:17:34.820Z,6.68
2022-08-19T00:20:37.542Z,6.93
2022-08-19T00:23:39.160Z,6.45
2022-08-19T00:26:42.180Z,6.45
2022-08-19T00:29:43.812Z,6.28
2022-08-19T00:32:46.152Z,6.30
2022-08-19T00:35:47.898Z,6.90
2022-08-19T00:38:57.970Z,6.95
2022-08-19T00:41:59.705Z,6.90
2022-08-19T00:45:01.774Z,5.90
2022-08-19T00:48:14.809Z,5.95
2022-08-19T00:51:17.322Z,5.93
2022-08-19T00:54:24.860Z,6.35
2022-08-19T00:57:39.872Z,5.75
2022-08-19T01:00:42.346Z,6.50
2022-08-19T01:03:56.564Z,6.37
2022-08-19T01:07:00.323Z,5.78
2022-08-19T01:10:02.769Z,5.87
2022-08-19T01:13:05.959Z,6.25
2022-08-19T01:16:11.213Z,6.43
2022-08-19T01:19:27.295Z,6.35
2022-08-19T01:22:34.066Z,6.37
2022-08-19T01:25:55.429Z,6.57
2022-08-19T01:29:00.820Z,6.57
2022-08-19T01:32:03.246Z,6.25
2022-08-19T01:35:05.594Z,5.95
2022-08-19T01:38:11.201Z,6.05
2022-08-19T01:41:14.237Z,6.50
2022-08-19T01:44:18.755Z,6.10
2022-08-19T01:47:21.133Z,6.03
2022-08-19T01:50:23.196Z,6.78
2022-08-19T01:53:26.718Z,6.25
2022-08-19T01:56:35.425Z,6.28
2022-08-19T01:59:37.559Z,6.50
2022-08-19T02:02:39.511Z,6.47
2022-08-19T02:05:42.951Z,6.55
2022-08-19T02:08:47.264Z,6.47
2022-08-19T02:11:49.761Z,6.32
2022-08-19T02:14:51.427Z,6.75
2022-08-19T02:17:53.144Z,7.32
2022-08-19T02:20:55.107Z,6.65
2022-08-19T02:23:57.474Z,7.30
2022-08-19T02:26:59.848Z,6.25
2022-08-19T02:30:02.220Z,6.20
2022-08-19T02:33:04.109Z,6.18
2022-08-19T02:36:07.690Z,6.65
2022-08-19T02:39:10.775Z,6.68
2022-08-19T02:42:13.432Z,7.28
2022-08-19T02:45:15.691Z,6.93
2022-08-19T02:48:21.880Z,6.57
2022-08-19T02:51:32.422Z,6.68
2022-08-19T02:54:34.721Z,6.00
2022-08-19T02:57:36.837Z,6.97
2022-08-19T03:00:44.716Z,6.55
2022-08-19T03:03:47.500Z,6.53
2022-08-19T03:06:50.335Z,6.43
2022-08-19T03:09:51.951Z,6.32
2022-08-19T03:12:53.890Z,6.90
2022-08-19T03:15:55.942Z,6.43
2022-08-19T03:19:01.183Z,6.37
2022-08-19T03:22:03.688Z,7.05
2022-08-19T03:25:05.788Z,6.28
2022-08-19T03:28:08.421Z,6.15
2022-08-19T03:31:44.719Z,7.95
2022-08-19T03:34:39.287Z,7.28
2022-08-19T03:37:41.027Z,6.95
2022-08-19T03:40:44.000Z,6.35
2022-08-19T03:43:50.772Z,6.87
2022-08-19T03:46:58.795Z,6.03
2022-08-19T03:50:00.661Z,6.57
2022-08-19T03:53:02.629Z,6.72
2022-08-19T03:56:04.547Z,6.60
2022-08-19T03:59:08.998Z,6.53
2022-08-19T04:02:12.897Z,7.00
2022-08-19T04:05:16.201Z,6.85
2022-08-19T04:08:21.157Z,6.65
2022-08-19T04:11:43.190Z,6.32
2022-08-19T04:14:45.793Z,5.93
2022-08-19T04:17:47.684Z,6.55
2022-08-19T04:20:50.740Z,6.43
2022-08-19T04:23:53.697Z,6.25
2022-08-19T04:26:57.624Z,6.47
2022-08-19T04:29:59.281Z,5.85
2022-08-19T04:33:00.912Z,6.20
2022-08-19T04:36:02.749Z,5.90
2022-08-19T04:39:08.704Z,7.12
2022-08-19T04:42:30.848Z,5.95
2022-08-19T04:45:43.518Z,6.28
2022-08-19T04:48:49.647Z,6.20
2022-08-19T04:51:55.269Z,10.65
2022-08-19T04:54:57.199Z,6.60
2022-08-19T04:57:58.829Z,6.45
2022-08-19T05:01:01.915Z,6.12
2022-08-19T05:04:06.583Z,6.00
2022-08-19T05:07:08.967Z,5.50
2022-08-19T05:10:11.082Z,6.18
2022-08-19T05:13:12.912Z,6.60
2022-08-19T05:16:15.549Z,6.87
2022-08-19T05:19:35.834Z,6.55
2022-08-19T05:22:38.613Z,5.95
2022-08-19T05:25:41.439Z,6.20
2022-08-19T05:28:43.414Z,6.40
2022-08-19T05:31:46.373Z,6.30
2022-08-19T05:34:48.220Z,5.97
2022-08-19T05:37:49.896Z,6.18
2022-08-19T05:40:57.088Z,5.78
2022-08-19T05:44:01.833Z,5.75
2022-08-19T05:47:05.803Z,5.80
2022-08-19T05:50:07.901Z,5.78
2022-08-19T05:53:09.987Z,6.05
2022-08-19T05:56:17.060Z,6.30
2022-08-19T05:59:22.518Z,5.28
2022-08-19T06:02:32.013Z,5.37
2022-08-19T06:05:33.895Z,5.90
2022-08-19T06:08:51.710Z,5.82
2022-08-19T06:11:56.955Z,5.72
2022-08-19T06:15:01.023Z,5.82
2022-08-19T06:18:03.460Z,5.50
2022-08-19T06:21:05.531Z,5.62
2022-08-19T06:24:09.861Z,5.68
2022-08-19T06:27:11.509Z,5.70
2022-08-19T06:30:13.629Z,5.90
2022-08-19T06:33:15.263Z,5.70
2022-08-19T06:36:32.814Z,5.57
2022-08-19T06:39:39.181Z,5.22
2022-08-19T06:42:49.467Z,5.30
2022-08-19T06:45:56.288Z,5.55
2022-08-19T06:48:59.082Z,5.62
2022-08-19T06:52:01.882Z,5.37
2022-08-19T06:55:06.160Z,5.30
2022-08-19T06:58:08.596Z,5.70
2022-08-19T07:01:11.447Z,5.55
2022-08-19T07:04:14.964Z,5.03
2022-08-19T07:07:19.672Z,5.10
2022-08-19T07:10:22.163Z,4.85
2022-08-19T07:13:25.395Z,4.80
2022-08-19T07:16:29.465Z,5.10
2022-08-19T07:19:32.532Z,4.90
2022-08-19T07:22:35.826Z,4.62
2022-08-19T07:25:39.302Z,4.70
2022-08-19T07:28:45.985Z,4.80
2022-08-19T07:31:48.970Z,4.72
2022-08-19T07:34:53.598Z,4.40
2022-08-19T07:37:55.408Z,4.45
2022-08-19T07:40:57.250Z,4.80
2022-08-19T07:44:04.723Z,4.62
2022-08-19T07:47:06.419Z,4.40
2022-08-19T07:50:12.361Z,4.50
2022-08-19T07:53:14.307Z,4.57
2022-08-19T07:56:16.269Z,4.70
2022-08-19T07:59:19.013Z,3.78
2022-08-19T08:02:20.671Z,4.35
2022-08-19T08:05:43.658Z,4.10
2022-08-19T08:09:04.402Z,4.00
2022-08-19T08:12:33.703Z,4.70
2022-08-19T08:15:42.599Z,3.75
2022-08-19T08:18:50.735Z,4.00
2022-08-19T08:22:00.676Z,4.05
2022-08-19T08:25:12.943Z,3.97
2022-08-19T08:28:18.155Z,4.00
2022-08-19T08:31:20.480Z,3.87
2022-08-19T08:34:22.401Z,3.60
2022-08-19T08:37:24.241Z,3.17
2022-08-19T08:40:46.874Z,2.90
2022-08-19T08:43:53.007Z,4.07
2022-08-19T08:46:59.805Z,3.78
2022-08-19T08:50:15.802Z,2.85
2022-08-19T08:53:29.243Z,2.78
2022-08-19T08:56:32.689Z,3.22
2022-08-19T08:59:38.766Z,3.40
2022-08-19T09:02:40.561Z,2.83
2022-08-19T09:06:20.517Z,3.00
2022-08-19T09:13:09.159Z,2.70
2022-08-19T09:16:18.182Z,2.70
2022-08-19T09:19:22.839Z,2.40
2022-08-19T09:22:26.143Z,2.60
2022-08-19T09:25:29.630Z,2.85
2022-08-19T09:28:32.618Z,2.70
2022-08-19T09:31:34.431Z,2.70
2022-08-19T09:34:38.045Z,2.62
2022-08-19T09:37:45.813Z,2.97
2022-08-19T09:40:47.439Z,2.80
2022-08-19T09:43:53.209Z,2.67
2022-08-19T09:46:55.110Z,2.90
2022-08-19T09:49:56.849Z,2.87
2022-08-19T09:53:00.197Z,2.80
2022-08-19T09:56:04.154Z,2.67
2022-08-19T09:59:06.038Z,2.70
2022-08-19T10:02:10.807Z,2.60
2022-08-19T10:05:31.920Z,2.62
2022-08-19T10:08:36.393Z,2.90
2022-08-19T10:11:46.861Z,2.53
2022-08-19T10:14:55.495Z,2.42
2022-08-19T10:17:58.717Z,2.60
2022-08-19T10:21:11.683Z,3.10
2022-08-19T10:24:13.619Z,2.65
2022-08-19T10:27:15.756Z,2.80
2022-08-19T10:30:17.966Z,3.10
2022-08-19T10:33:38.573Z,2.95
2022-08-19T10:36:55.867Z,2.90
2022-08-19T10:39:59.652Z,2.83
2022-08-19T10:43:01.410Z,2.85
2022-08-19T10:46:03.116Z,2.87
2022-08-19T10:49:06.773Z,3.22
2022-08-19T10:52:39.003Z,3.40
2022-08-19T10:55:59.793Z,3.28
2022-08-19T10:59:02.160Z,3.28
2022-08-19T11:02:06.750Z,3.50
2022-08-19T11:05:12.678Z,3.80
2022-08-19T11:08:21.202Z,3.60
2022-08-19T11:11:25.401Z,3.50
2022-08-19T11:14:27.035Z,3.72
2022-08-19T11:17:34.131Z,3.12
2022-08-19T11:20:35.803Z,3.40
2022-08-19T11:23:37.619Z,3.50
2022-08-19T11:26:42.157Z,3.17
2022-08-19T11:29:43.769Z,3.20
2022-08-19T11:32:49.244Z,3.58
2022-08-19T11:35:51.455Z,3.62
2022-08-19T11:38:54.047Z,3.62
2022-08-19T11:41:56.530Z,3.12
2022-08-19T11:44:58.350Z,3.87
2022-08-19T11:48:00.134Z,3.42
2022-08-19T11:51:07.211Z,3.72
2022-08-19T11:54:09.182Z,3.17
2022-08-19T11:57:10.812Z,3.37
2022-08-19T12:00:13.910Z,3.37
2022-08-19T12:03:15.813Z,3.50
2022-08-19T12:06:24.289Z,3.20
2022-08-19T12:09:26.038Z,3.60
2022-08-19T12:12:32.726Z,3.30
2022-08-19T12:15:39.234Z,3.45
2022-08-19T12:18:43.813Z,3.90
2022-08-19T12:21:45.512Z,3.17
2022-08-19T12:24:47.530Z,3.50
2022-08-19T12:27:57.317Z,3.60
2022-08-19T12:30:59.481Z,3.20
2022-08-19T12:34:03.590Z,3.60
2022-08-19T12:37:07.317Z,3.30
2022-08-19T12:40:09.738Z,3.17
2022-08-19T12:43:12.662Z,3.78
2022-08-19T12:46:15.873Z,3.25
2022-08-19T12:49:30.438Z,3.10
2022-08-19T12:52:43.469Z,3.20
2022-08-19T12:55:45.245Z,3.30
2022-08-19T12:58:48.605Z,2.90
2022-08-19T13:01:51.131Z,3.12
2022-08-19T13:04:52.925Z,3.05
2022-08-19T13:07:57.223Z,2.83
2022-08-19T13:10:59.334Z,3.08
2022-08-19T13:14:03.546Z,2.80
2022-08-19T13:17:05.309Z,3.15
2022-08-19T13:20:09.840Z,3.20
2022-08-19T13:23:11.543Z,2.72
2022-08-19T13:26:14.139Z,2.83
2022-08-19T13:29:34.708Z,3.28
2022-08-19T13:32:55.184Z,2.80
2022-08-19T13:36:01.646Z,2.87
2022-08-19T13:39:04.315Z,3.25
2022-08-19T13:42:07.210Z,3.30
2022-08-19T13:45:09.885Z,3.05
2022-08-19T13:48:11.681Z,3.00
2022-08-19T13:51:13.462Z,2.80
2022-08-19T13:54:15.206Z,2.97
2022-08-19T13:57:17.234Z,3.97
2022-08-19T14:00:20.159Z,2.80
2022-08-19T14:03:21.952Z,4.15
2022-08-19T14:06:24.181Z,2.78
2022-08-19T14:09:25.930Z,3.08
2022-08-19T14:12:28.800Z,2.62
2022-08-19T14:15:31.115Z,2.97
2022-08-19T14:18:32.933Z,2.60
2022-08-19T14:21:38.584Z,3.00
2022-08-19T14:24:43.239Z,2.70
2022-08-19T14:27:50.295Z,2.95
2022-08-19T14:30:56.626Z,3.45
2022-08-19T14:33:58.384Z,3.00
2022-08-19T14:37:00.623Z,2.75
2022-08-19T14:40:04.930Z,3.03
2022-08-19T14:43:06.679Z,2.97
2022-08-19T14:46:09.170Z,3.00
2022-08-19T14:49:12.296Z,3.28
2022-08-19T14:52:14.472Z,3.28
2022-08-19T14:55:18.218Z,3.20
2022-08-19T14:58:29.012Z,3.55
2022-08-19T15:01:32.015Z,3.17
2022-08-19T15:04:33.949Z,3.00
2022-08-19T15:07:35.735Z,3.40
2022-08-19T15:10:40.229Z,3.50
2022-08-19T15:13:42.447Z,3.17
2022-08-19T15:16:44.198Z,3.10
2022-08-19T15:19:47.094Z,2.90
2022-08-19T15:22:49.626Z,3.33
2022-08-19T15:25:55.962Z,2.95
2022-08-19T15:28:59.510Z,3.33
2022-08-19T15:32:01.587Z,3.17
2022-08-19T15:35:04.754Z,3.80
2022-08-19T15:38:07.843Z,3.45
2022-08-19T15:41:26.068Z,3.62
2022-08-19T15:44:27.994Z,3.03
2022-08-19T15:47:35.207Z,3.00
2022-08-19T15:50:39.601Z,3.08
2022-08-19T15:53:42.660Z,3.45
2022-08-19T15:57:02.860Z,3.72
2022-08-19T16:00:23.742Z,3.12
2022-08-19T16:03:47.372Z,3.12
2022-08-19T16:06:55.347Z,4.87
2022-08-19T16:09:57.109Z,5.00
2022-08-19T16:12:59.378Z,4.53
2022-08-19T16:16:01.103Z,4.53
2022-08-19T16:19:10.149Z,4.25
2022-08-19T16:22:12.190Z,4.15
2022-08-19T16:25:14.888Z,4.75
2022-08-19T16:28:16.629Z,3.83
2022-08-19T16:31:18.246Z,3.72
2022-08-19T16:34:20.169Z,3.53
2022-08-19T16:37:23.245Z,4.47
2022-08-19T16:40:25.253Z,11.52
2022-08-19T16:43:29.033Z,14.77
2022-08-19T16:46:30.661Z,13.32
2022-08-19T16:49:53.100Z,9.48
2022-08-19T16:52:54.827Z,6.65
2022-08-19T16:55:57.595Z,5.60
2022-08-19T16:59:02.446Z,4.82
2022-08-19T17:02:04.347Z,4.25
2022-08-19T17:05:10.186Z,3.95
2022-08-19T17:08:12.119Z,3.40
2022-08-19T17:11:18.479Z,3.50
2022-08-19T17:14:21.964Z,3.35
2022-08-19T17:17:28.349Z,3.67
2022-08-19T17:20:32.574Z,3.75
2022-08-19T17:23:36.677Z,3.22
2022-08-19T17:26:45.559Z,3.35
2022-08-19T17:29:47.411Z,3.60
2022-08-19T17:32:49.126Z,3.12
2022-08-19T17:35:50.860Z,3.15
2022-08-19T17:38:55.400Z,3.10
2022-08-19T17:41:57.416Z,3.37
2022-08-19T17:45:05.989Z,3.53
2022-08-19T17:48:09.247Z,3.45
2022-08-19T17:51:15.512Z,3.37
2022-08-19T17:54:19.493Z,3.65
2022-08-19T17:57:21.196Z,2.92
2022-08-19T18:00:23.222Z,2.40
2022-08-19T18:03:30.303Z,2.90
2022-08-19T18:06:32.071Z,2.92
2022-08-19T18:09:42.586Z,3.00
2022-08-19T18:12:44.606Z,2.78
2022-08-19T18:15:47.433Z,2.92
2022-08-19T18:18:49.661Z,2.50
2022-08-19T18:21:51.508Z,3.35
2022-08-19T18:24:54.108Z,3.30
2022-08-19T18:27:58.682Z,3.00
2022-08-19T18:31:01.454Z,3.47
2022-08-19T18:34:03.238Z,3.22
2022-08-19T18:37:05.225Z,3.25
2022-08-19T18:40:27.836Z,3.47
2022-08-19T18:43:47.930Z,4.30
2022-08-19T18:47:08.003Z,3.03
2022-08-19T18:50:10.242Z,2.33
2022-08-19T18:53:14.039Z,3.15
2022-08-19T18:56:19.021Z,3.62
2022-08-19T18:59:21.185Z,2.25
2022-08-19T19:02:27.810Z,2.90
2022-08-19T19:08:31.062Z,4.00
2022-08-19T19:11:37.345Z,2.75
2022-08-19T19:14:49.866Z,2.92
2022-08-19T19:17:52.095Z,3.12
2022-08-19T19:20:54.533Z,2.87
2022-08-19T19:23:56.404Z,3.83
2022-08-19T19:27:01.442Z,3.15
2022-08-19T19:30:03.658Z,3.30
2022-08-19T19:33:05.494Z,2.92
2022-08-19T19:36:07.904Z,3.35
2022-08-19T19:39:09.815Z,3.55
2022-08-19T19:42:19.670Z,3.58
2022-08-19T19:45:22.972Z,4.03
2022-08-19T19:48:24.976Z,3.90
2022-08-19T19:51:30.362Z,4.18
2022-08-19T19:54:37.939Z,3.92
2022-08-19T19:57:40.432Z,3.92
2022-08-19T20:00:42.220Z,3.78
2022-08-19T20:03:44.710Z,3.30
2022-08-19T20:06:47.165Z,4.22
2022-08-19T20:09:59.643Z,3.85
2022-08-19T20:13:03.185Z,3.47
2022-08-19T20:16:04.947Z,3.75
2022-08-19T20:19:07.685Z,3.05
2022-08-19T20:22:09.317Z,3.65
2022-08-19T20:25:15.117Z,3.35
2022-08-19T20:28:17.590Z,3.30
2022-08-19T20:31:19.614Z,3.72
2022-08-19T20:34:21.743Z,3.17
2022-08-19T20:37:23.483Z,3.47
2022-08-19T20:40:29.514Z,4.10
2022-08-19T20:43:31.678Z,3.33
2022-08-19T20:46:34.199Z,3.25
2022-08-19T20:49:35.894Z,3.60
2022-08-19T20:52:39.284Z,3.65
2022-08-19T20:55:45.204Z,3.80
2022-08-19T20:58:53.498Z,3.73
2022-08-19T21:01:57.656Z,4.37
2022-08-19T21:04:59.443Z,4.10
2022-08-19T21:08:04.663Z,4.45
2022-08-19T21:11:07.672Z,4.40
2022-08-19T21:14:09.540Z,4.65
2022-08-19T21:17:11.620Z,4.62
2022-08-19T21:20:13.505Z,4.62
2022-08-19T21:23:21.460Z,5.15
2022-08-19T21:26:24.409Z,4.53
2022-08-19T21:29:26.216Z,5.20
2022-08-19T21:32:27.973Z,4.82
2022-08-19T21:35:30.334Z,5.70
2022-08-19T21:38:32.064Z,5.20
2022-08-19T21:41:33.730Z,4.45
2022-08-19T21:44:37.637Z,5.32
2022-08-19T21:47:39.681Z,4.60
2022-08-19T21:50:42.721Z,4.32
2022-08-19T21:53:47.852Z,4.30
2022-08-19T21:56:50.498Z,4.53
2022-08-19T21:59:52.986Z,4.05
2022-08-19T22:02:55.825Z,3.90
2022-08-19T22:05:58.658Z,4.18
2022-08-19T22:09:00.420Z,4.90
2022-08-19T22:12:02.289Z,4.22
2022-08-19T22:15:07.295Z,4.68
2022-08-19T22:18:09.124Z,4.37
2022-08-19T22:21:12.107Z,4.47
2022-08-19T22:24:14.308Z,4.30
2022-08-19T22:27:16.275Z,4.07
2022-08-19T22:30:20.576Z,3.90
2022-08-19T22:33:22.942Z,3.37
2022-08-19T22:36:24.628Z,3.70
2022-08-19T22:39:26.350Z,3.30
2022-08-19T22:42:31.915Z,3.53
2022-08-19T22:48:38.627Z,3.85
2022-08-19T22:51:59.205Z,4.43
2022-08-19T22:55:04.663Z,4.20
2022-08-19T22:58:06.411Z,3.78
2022-08-19T23:01:08.477Z,3.55
2022-08-19T23:04:10.875Z,3.40
2022-08-19T23:07:12.857Z,3.15
2022-08-19T23:10:14.653Z,3.75
2022-08-19T23:13:31.760Z,3.35
2022-08-19T23:16:34.870Z,3.78
2022-08-19T23:19:38.539Z,3.83
2022-08-19T23:22:41.859Z,3.42
2022-08-19T23:25:43.493Z,3.40
2022-08-19T23:29:04.261Z,3.53
2022-08-19T23:32:07.175Z,3.20
2022-08-19T23:35:09.205Z,3.50
2022-08-19T23:38:10.848Z,2.83
2022-08-19T23:41:14.972Z,3.45
2022-08-19T23:44:17.465Z,3.95
2022-08-19T23:47:21.498Z,3.60
2022-08-19T23:50:26.931Z,3.78
2022-08-19T23:53:29.453Z,3.30
2022-08-19T23:56:31.068Z,3.83
2022-08-19T23:59:32.984Z,3.40
